Terminal Aerodrome Forecast
Issued by NWS

Home | Current Version | Previous Version | Text Only | Print | Product List | Glossary On
Versions: 1 2 3 4 5 6 7 8 9 10 11 12 13 14 15
994
FTUS43 KMQT 131736
TAFCMX
TAF
KCMX 131736Z 1318/1418 32012G18KT 1 1/2SM -SHSN SCT015 OVC025
      TEMPO 1318/1320 BKN015
     FM132300 31005KT 3SM -SHSN BKN024
     FM140400 00000KT P6SM VCSH BKN035
     FM140700 00000KT P6SM FEW200
     FM141300 17006KT P6SM SCT200=

USA.gov is the U.S. government's official web portal to all federal, state and local government web resources and services.